sensor_id;sensor_type;location;lat;lon;timestamp;temperature;humidity
20568;DHT22;10442;49.932;11.592;2023-05-07T00:00:53;14.90;67.20
20568;DHT22;10442;49.932;11.592;2023-05-07T00:03:22;14.90;67.20
20568;DHT22;10442;49.932;11.592;2023-05-07T00:05:49;14.90;67.10
20568;DHT22;10442;49.932;11.592;2023-05-07T00:08:16;14.90;67.40
20568;DHT22;10442;49.932;11.592;2023-05-07T00:10:44;14.90;67.40
20568;DHT22;10442;49.932;11.592;2023-05-07T00:13:12;14.90;67.40
20568;DHT22;10442;49.932;11.592;2023-05-07T00:15:39;14.90;67.30
20568;DHT22;10442;49.932;11.592;2023-05-07T00:18:06;14.90;67.30
20568;DHT22;10442;49.932;11.592;2023-05-07T00:20:34;14.90;67.30
20568;DHT22;10442;49.932;11.592;2023-05-07T00:23:02;14.90;67.40
20568;DHT22;10442;49.932;11.592;2023-05-07T00:25:30;14.90;67.10
20568;DHT22;10442;49.932;11.592;2023-05-07T00:27:57;14.80;67.00
20568;DHT22;10442;49.932;11.592;2023-05-07T00:30:30;14.80;67.20
20568;DHT22;10442;49.932;11.592;2023-05-07T00:32:57;14.80;67.40
20568;DHT22;10442;49.932;11.592;2023-05-07T00:35:25;14.80;67.50
20568;DHT22;10442;49.932;11.592;2023-05-07T00:37:52;14.80;67.30
20568;DHT22;10442;49.932;11.592;2023-05-07T00:40:20;14.80;67.40
20568;DHT22;10442;49.932;11.592;2023-05-07T00:42:47;14.80;67.40
20568;DHT22;10442;49.932;11.592;2023-05-07T00:45:16;14.80;67.40
20568;DHT22;10442;49.932;11.592;2023-05-07T00:47:44;14.80;67.30
20568;DHT22;10442;49.932;11.592;2023-05-07T00:50:11;14.70;67.20
20568;DHT22;10442;49.932;11.592;2023-05-07T00:52:40;14.70;67.30
20568;DHT22;10442;49.932;11.592;2023-05-07T00:55:11;14.70;67.10
20568;DHT22;10442;49.932;11.592;2023-05-07T00:57:41;14.70;67.20
20568;DHT22;10442;49.932;11.592;2023-05-07T01:00:10;14.70;67.50
20568;DHT22;10442;49.932;11.592;2023-05-07T01:02:39;14.60;68.50
20568;DHT22;10442;49.932;11.592;2023-05-07T01:05:11;14.60;67.80
20568;DHT22;10442;49.932;11.592;2023-05-07T01:07:40;14.60;68.00
20568;DHT22;10442;49.932;11.592;2023-05-07T01:10:09;14.60;68.40
20568;DHT22;10442;49.932;11.592;2023-05-07T01:12:39;14.50;69.30
20568;DHT22;10442;49.932;11.592;2023-05-07T01:15:08;14.50;68.60
20568;DHT22;10442;49.932;11.592;2023-05-07T01:17:41;14.50;68.50
20568;DHT22;10442;49.932;11.592;2023-05-07T01:20:15;14.40;68.40
20568;DHT22;10442;49.932;11.592;2023-05-07T01:22:46;14.40;68.40
20568;DHT22;10442;49.932;11.592;2023-05-07T01:25:14;14.40;68.40
20568;DHT22;10442;49.932;11.592;2023-05-07T01:27:47;14.30;68.70
20568;DHT22;10442;49.932;11.592;2023-05-07T01:30:15;14.30;68.80
20568;DHT22;10442;49.932;11.592;2023-05-07T01:32:52;14.30;68.90
20568;DHT22;10442;49.932;11.592;2023-05-07T01:35:22;14.30;69.10
20568;DHT22;10442;49.932;11.592;2023-05-07T01:37:51;14.30;69.10
20568;DHT22;10442;49.932;11.592;2023-05-07T01:40:19;14.30;69.10
20568;DHT22;10442;49.932;11.592;2023-05-07T01:42:47;14.30;68.90
20568;DHT22;10442;49.932;11.592;2023-05-07T01:45:18;14.30;68.70
20568;DHT22;10442;49.932;11.592;2023-05-07T01:47:46;14.30;68.60
20568;DHT22;10442;49.932;11.592;2023-05-07T01:50:16;14.40;69.00
20568;DHT22;10442;49.932;11.592;2023-05-07T01:52:44;14.40;69.50
20568;DHT22;10442;49.932;11.592;2023-05-07T01:55:11;14.40;69.70
20568;DHT22;10442;49.932;11.592;2023-05-07T01:57:40;14.40;69.90
20568;DHT22;10442;49.932;11.592;2023-05-07T02:00:08;14.40;70.00
20568;DHT22;10442;49.932;11.592;2023-05-07T02:02:42;14.40;70.10
20568;DHT22;10442;49.932;11.592;2023-05-07T02:05:21;14.40;69.80
20568;DHT22;10442;49.932;11.592;2023-05-07T02:07:55;14.40;69.50
20568;DHT22;10442;49.932;11.592;2023-05-07T02:10:23;14.50;69.40
20568;DHT22;10442;49.932;11.592;2023-05-07T02:12:50;14.50;69.30
20568;DHT22;10442;49.932;11.592;2023-05-07T02:15:18;14.50;70.10
20568;DHT22;10442;49.932;11.592;2023-05-07T02:18:06;14.50;69.30
20568;DHT22;10442;49.932;11.592;2023-05-07T02:20:34;14.50;69.40
20568;DHT22;10442;49.932;11.592;2023-05-07T02:23:02;14.50;69.20
20568;DHT22;10442;49.932;11.592;2023-05-07T02:25:30;14.60;69.40
20568;DHT22;10442;49.932;11.592;2023-05-07T02:27:58;14.60;69.40
20568;DHT22;10442;49.932;11.592;2023-05-07T02:30:38;14.60;69.30
20568;DHT22;10442;49.932;11.592;2023-05-07T02:33:05;14.60;69.40
20568;DHT22;10442;49.932;11.592;2023-05-07T02:35:34;14.60;69.20
20568;DHT22;10442;49.932;11.592;2023-05-07T02:38:02;14.60;69.10
20568;DHT22;10442;49.932;11.592;2023-05-07T02:40:30;14.60;69.10
20568;DHT22;10442;49.932;11.592;2023-05-07T02:43:00;14.60;69.40
20568;DHT22;10442;49.932;11.592;2023-05-07T02:45:28;14.60;69.50
20568;DHT22;10442;49.932;11.592;2023-05-07T02:47:55;14.60;69.40
20568;DHT22;10442;49.932;11.592;2023-05-07T02:50:22;14.60;69.20
20568;DHT22;10442;49.932;11.592;2023-05-07T02:52:50;14.50;69.10
20568;DHT22;10442;49.932;11.592;2023-05-07T02:55:17;14.50;69.00
20568;DHT22;10442;49.932;11.592;2023-05-07T02:57:45;14.50;70.00
20568;DHT22;10442;49.932;11.592;2023-05-07T03:00:17;14.50;69.50
20568;DHT22;10442;49.932;11.592;2023-05-07T03:03:17;14.50;69.90
20568;DHT22;10442;49.932;11.592;2023-05-07T03:05:44;14.40;69.90
20568;DHT22;10442;49.932;11.592;2023-05-07T03:08:11;14.40;70.10
20568;DHT22;10442;49.932;11.592;2023-05-07T03:10:39;14.40;70.10
20568;DHT22;10442;49.932;11.592;2023-05-07T03:13:06;14.30;70.20
20568;DHT22;10442;49.932;11.592;2023-05-07T03:15:34;14.30;70.10
20568;DHT22;10442;49.932;11.592;2023-05-07T03:18:01;14.30;70.20
20568;DHT22;10442;49.932;11.592;2023-05-07T03:20:29;14.30;70.20
20568;DHT22;10442;49.932;11.592;2023-05-07T03:22:57;14.20;70.90
20568;DHT22;10442;49.932;11.592;2023-05-07T03:25:24;14.20;70.30
20568;DHT22;10442;49.932;11.592;2023-05-07T03:27:52;14.20;70.40
20568;DHT22;10442;49.932;11.592;2023-05-07T03:30:23;14.20;70.50
20568;DHT22;10442;49.932;11.592;2023-05-07T03:32:50;14.20;70.50
20568;DHT22;10442;49.932;11.592;2023-05-07T03:35:18;14.20;70.40
20568;DHT22;10442;49.932;11.592;2023-05-07T03:37:46;14.10;70.20
20568;DHT22;10442;49.932;11.592;2023-05-07T03:40:13;14.10;70.30
20568;DHT22;10442;49.932;11.592;2023-05-07T03:42:46;14.10;70.50
20568;DHT22;10442;49.932;11.592;2023-05-07T03:45:17;14.00;70.30
20568;DHT22;10442;49.932;11.592;2023-05-07T03:47:51;14.00;70.10
20568;DHT22;10442;49.932;11.592;2023-05-07T03:50:20;14.00;70.10
20568;DHT22;10442;49.932;11.592;2023-05-07T03:52:48;14.00;70.10
20568;DHT22;10442;49.932;11.592;2023-05-07T03:55:18;14.00;70.30
20568;DHT22;10442;49.932;11.592;2023-05-07T03:57:50;14.00;70.50
20568;DHT22;10442;49.932;11.592;2023-05-07T04:00:19;13.90;70.40
20568;DHT22;10442;49.932;11.592;2023-05-07T04:02:47;14.00;70.50
20568;DHT22;10442;49.932;11.592;2023-05-07T04:05:19;14.00;70.50
20568;DHT22;10442;49.932;11.592;2023-05-07T04:07:50;14.00;70.40
20568;DHT22;10442;49.932;11.592;2023-05-07T04:10:22;13.90;70.40
20568;DHT22;10442;49.932;11.592;2023-05-07T04:12:53;14.00;70.60
20568;DHT22;10442;49.932;11.592;2023-05-07T04:15:23;14.00;70.80
20568;DHT22;10442;49.932;11.592;2023-05-07T04:17:50;14.10;70.80
20568;DHT22;10442;49.932;11.592;2023-05-07T04:20:21;14.20;70.80
20568;DHT22;10442;49.932;11.592;2023-05-07T04:22:55;14.30;71.00
20568;DHT22;10442;49.932;11.592;2023-05-07T04:25:23;14.40;70.90
20568;DHT22;10442;49.932;11.592;2023-05-07T04:27:58;14.50;71.00
20568;DHT22;10442;49.932;11.592;2023-05-07T04:30:28;14.60;71.20
20568;DHT22;10442;49.932;11.592;2023-05-07T04:32:56;14.80;71.20
20568;DHT22;10442;49.932;11.592;2023-05-07T04:35:26;15.00;70.80
20568;DHT22;10442;49.932;11.592;2023-05-07T04:37:53;15.10;70.30
20568;DHT22;10442;49.932;11.592;2023-05-07T04:40:21;15.30;70.10
20568;DHT22;10442;49.932;11.592;2023-05-07T04:42:48;15.40;69.70
20568;DHT22;10442;49.932;11.592;2023-05-07T04:45:16;15.50;69.30
20568;DHT22;10442;49.932;11.592;2023-05-07T04:47:45;15.60;68.90
20568;DHT22;10442;49.932;11.592;2023-05-07T04:50:13;15.70;68.50
20568;DHT22;10442;49.932;11.592;2023-05-07T04:52:42;15.80;68.00
20568;DHT22;10442;49.932;11.592;2023-05-07T04:55:09;15.80;67.70
20568;DHT22;10442;49.932;11.592;2023-05-07T04:57:39;15.80;67.60
20568;DHT22;10442;49.932;11.592;2023-05-07T05:00:11;15.90;67.50
20568;DHT22;10442;49.932;11.592;2023-05-07T05:02:43;15.90;67.30
20568;DHT22;10442;49.932;11.592;2023-05-07T05:05:14;15.90;67.20
20568;DHT22;10442;49.932;11.592;2023-05-07T05:07:42;15.90;67.40
20568;DHT22;10442;49.932;11.592;2023-05-07T05:10:09;16.00;67.70
20568;DHT22;10442;49.932;11.592;2023-05-07T05:12:39;16.10;68.00
20568;DHT22;10442;49.932;11.592;2023-05-07T05:15:08;16.40;67.80
20568;DHT22;10442;49.932;11.592;2023-05-07T05:17:35;16.70;67.80
20568;DHT22;10442;49.932;11.592;2023-05-07T05:20:05;17.00;67.50
20568;DHT22;10442;49.932;11.592;2023-05-07T05:22:34;17.40;66.10
20568;DHT22;10442;49.932;11.592;2023-05-07T05:25:01;17.70;65.50
20568;DHT22;10442;49.932;11.592;2023-05-07T05:27:29;18.10;64.50
20568;DHT22;10442;49.932;11.592;2023-05-07T05:29:57;18.40;63.40
20568;DHT22;10442;49.932;11.592;2023-05-07T05:32:24;18.80;63.00
20568;DHT22;10442;49.932;11.592;2023-05-07T05:34:54;19.20;61.10
20568;DHT22;10442;49.932;11.592;2023-05-07T05:37:22;19.50;60.30
20568;DHT22;10442;49.932;11.592;2023-05-07T05:39:50;19.90;59.40
20568;DHT22;10442;49.932;11.592;2023-05-07T05:42:18;20.20;58.40
20568;DHT22;10442;49.932;11.592;2023-05-07T05:44:46;20.60;57.70
20568;DHT22;10442;49.932;11.592;2023-05-07T05:47:14;20.90;56.60
20568;DHT22;10442;49.932;11.592;2023-05-07T05:49:41;21.20;56.20
20568;DHT22;10442;49.932;11.592;2023-05-07T05:52:12;21.50;55.30
20568;DHT22;10442;49.932;11.592;2023-05-07T05:54:40;21.70;54.90
20568;DHT22;10442;49.932;11.592;2023-05-07T05:57:07;22.10;53.90
20568;DHT22;10442;49.932;11.592;2023-05-07T05:59:35;22.40;53.60
20568;DHT22;10442;49.932;11.592;2023-05-07T06:02:03;22.60;53.10
20568;DHT22;10442;49.932;11.592;2023-05-07T06:04:31;23.00;51.40
20568;DHT22;10442;49.932;11.592;2023-05-07T06:06:58;23.30;51.80
20568;DHT22;10442;49.932;11.592;2023-05-07T06:09:26;23.50;50.80
20568;DHT22;10442;49.932;11.592;2023-05-07T06:11:53;23.90;50.20
20568;DHT22;10442;49.932;11.592;2023-05-07T06:14:21;24.10;49.80
20568;DHT22;10442;49.932;11.592;2023-05-07T06:16:48;24.50;49.20
20568;DHT22;10442;49.932;11.592;2023-05-07T06:19:16;24.80;49.50
20568;DHT22;10442;49.932;11.592;2023-05-07T06:21:45;25.10;48.80
20568;DHT22;10442;49.932;11.592;2023-05-07T06:24:12;25.50;48.70
20568;DHT22;10442;49.932;11.592;2023-05-07T06:26:40;25.90;48.10
20568;DHT22;10442;49.932;11.592;2023-05-07T06:29:08;26.30;47.70
20568;DHT22;10442;49.932;11.592;2023-05-07T06:31:35;26.80;47.20
20568;DHT22;10442;49.932;11.592;2023-05-07T06:34:06;27.20;45.90
20568;DHT22;10442;49.932;11.592;2023-05-07T06:36:37;27.50;45.00
20568;DHT22;10442;49.932;11.592;2023-05-07T06:39:13;27.80;45.00
20568;DHT22;10442;49.932;11.592;2023-05-07T06:41:40;28.20;44.50
20568;DHT22;10442;49.932;11.592;2023-05-07T06:44:16;28.60;43.40
20568;DHT22;10442;49.932;11.592;2023-05-07T06:46:48;29.00;42.50
20568;DHT22;10442;49.932;11.592;2023-05-07T06:49:16;29.40;42.40
20568;DHT22;10442;49.932;11.592;2023-05-07T06:51:44;29.60;40.40
20568;DHT22;10442;49.932;11.592;2023-05-07T06:54:11;29.90;41.00
20568;DHT22;10442;49.932;11.592;2023-05-07T06:56:40;30.00;40.30
20568;DHT22;10442;49.932;11.592;2023-05-07T06:59:09;30.20;39.50
20568;DHT22;10442;49.932;11.592;2023-05-07T07:01:40;30.20;38.50
20568;DHT22;10442;49.932;11.592;2023-05-07T07:04:09;30.10;38.10
20568;DHT22;10442;49.932;11.592;2023-05-07T07:06:38;30.10;38.50
20568;DHT22;10442;49.932;11.592;2023-05-07T07:09:09;30.10;39.10
20568;DHT22;10442;49.932;11.592;2023-05-07T07:11:37;30.10;38.90
20568;DHT22;10442;49.932;11.592;2023-05-07T07:14:05;30.20;39.20
20568;DHT22;10442;49.932;11.592;2023-05-07T07:16:37;30.30;38.70
20568;DHT22;10442;49.932;11.592;2023-05-07T07:19:05;30.50;38.20
20568;DHT22;10442;49.932;11.592;2023-05-07T07:21:32;30.60;38.70
20568;DHT22;10442;49.932;11.592;2023-05-07T07:24:00;30.60;37.80
20568;DHT22;10442;49.932;11.592;2023-05-07T07:26:27;30.40;37.50
20568;DHT22;10442;49.932;11.592;2023-05-07T07:28:55;30.10;37.20
20568;DHT22;10442;49.932;11.592;2023-05-07T07:31:23;29.70;37.70
20568;DHT22;10442;49.932;11.592;2023-05-07T07:33:51;29.30;38.00
20568;DHT22;10442;49.932;11.592;2023-05-07T07:36:20;28.90;38.60
20568;DHT22;10442;49.932;11.592;2023-05-07T07:38:50;28.60;39.00
20568;DHT22;10442;49.932;11.592;2023-05-07T07:41:17;28.30;39.50
20568;DHT22;10442;49.932;11.592;2023-05-07T07:43:45;28.00;40.00
20568;DHT22;10442;49.932;11.592;2023-05-07T07:46:16;27.70;40.30
20568;DHT22;10442;49.932;11.592;2023-05-07T07:48:44;27.40;40.60
20568;DHT22;10442;49.932;11.592;2023-05-07T07:51:12;27.20;41.60
20568;DHT22;10442;49.932;11.592;2023-05-07T07:53:40;26.90;41.30
20568;DHT22;10442;49.932;11.592;2023-05-07T07:56:08;26.80;41.60
20568;DHT22;10442;49.932;11.592;2023-05-07T07:58:36;26.60;41.70
20568;DHT22;10442;49.932;11.592;2023-05-07T08:01:05;26.60;42.10
20568;DHT22;10442;49.932;11.592;2023-05-07T08:03:32;26.40;42.10
20568;DHT22;10442;49.932;11.592;2023-05-07T08:06:02;26.30;42.30
20568;DHT22;10442;49.932;11.592;2023-05-07T08:08:31;26.10;42.20
20568;DHT22;10442;49.932;11.592;2023-05-07T08:10:58;26.00;42.50
20568;DHT22;10442;49.932;11.592;2023-05-07T08:13:31;25.90;42.50
20568;DHT22;10442;49.932;11.592;2023-05-07T08:15:59;25.70;43.10
20568;DHT22;10442;49.932;11.592;2023-05-07T08:18:26;25.60;43.50
20568;DHT22;10442;49.932;11.592;2023-05-07T08:20:58;25.40;43.60
20568;DHT22;10442;49.932;11.592;2023-05-07T08:23:27;25.30;43.70
20568;DHT22;10442;49.932;11.592;2023-05-07T08:25:54;25.20;44.40
20568;DHT22;10442;49.932;11.592;2023-05-07T08:28:22;25.10;44.10
20568;DHT22;10442;49.932;11.592;2023-05-07T08:30:52;25.00;44.40
20568;DHT22;10442;49.932;11.592;2023-05-07T08:33:19;24.90;44.70
20568;DHT22;10442;49.932;11.592;2023-05-07T08:35:47;24.90;45.00
20568;DHT22;10442;49.932;11.592;2023-05-07T08:38:15;24.90;45.00
20568;DHT22;10442;49.932;11.592;2023-05-07T08:40:42;24.90;45.30
20568;DHT22;10442;49.932;11.592;2023-05-07T08:43:16;24.80;45.20
20568;DHT22;10442;49.932;11.592;2023-05-07T08:45:45;24.90;45.40
20568;DHT22;10442;49.932;11.592;2023-05-07T08:48:16;24.80;45.40
20568;DHT22;10442;49.932;11.592;2023-05-07T08:50:48;24.90;45.30
20568;DHT22;10442;49.932;11.592;2023-05-07T08:53:16;24.90;45.30
20568;DHT22;10442;49.932;11.592;2023-05-07T08:55:45;24.90;44.80
20568;DHT22;10442;49.932;11.592;2023-05-07T08:58:13;24.80;44.90
20568;DHT22;10442;49.932;11.592;2023-05-07T09:00:41;24.80;44.90
20568;DHT22;10442;49.932;11.592;2023-05-07T09:03:09;24.70;45.20
20568;DHT22;10442;49.932;11.592;2023-05-07T09:05:41;24.70;45.30
20568;DHT22;10442;49.932;11.592;2023-05-07T09:08:15;24.60;45.00
20568;DHT22;10442;49.932;11.592;2023-05-07T09:10:44;24.60;44.40
20568;DHT22;10442;49.932;11.592;2023-05-07T09:13:12;24.60;45.00
20568;DHT22;10442;49.932;11.592;2023-05-07T09:15:41;24.80;45.10
20568;DHT22;10442;49.932;11.592;2023-05-07T09:18:09;24.90;44.40
20568;DHT22;10442;49.932;11.592;2023-05-07T09:20:39;25.00;44.20
20568;DHT22;10442;49.932;11.592;2023-05-07T09:23:07;25.10;44.20
20568;DHT22;10442;49.932;11.592;2023-05-07T09:25:36;25.20;44.40
20568;DHT22;10442;49.932;11.592;2023-05-07T09:28:11;25.30;44.20
20568;DHT22;10442;49.932;11.592;2023-05-07T09:30:39;25.50;43.70
20568;DHT22;10442;49.932;11.592;2023-05-07T09:33:09;25.50;43.40
20568;DHT22;10442;49.932;11.592;2023-05-07T09:35:40;25.50;43.60
20568;DHT22;10442;49.932;11.592;2023-05-07T09:38:12;25.60;43.90
20568;DHT22;10442;49.932;11.592;2023-05-07T09:40:40;25.70;43.50
20568;DHT22;10442;49.932;11.592;2023-05-07T09:43:13;25.70;43.50
20568;DHT22;10442;49.932;11.592;2023-05-07T09:45:50;25.70;43.00
20568;DHT22;10442;49.932;11.592;2023-05-07T09:48:21;25.60;42.70
20568;DHT22;10442;49.932;11.592;2023-05-07T09:50:52;25.50;43.00
20568;DHT22;10442;49.932;11.592;2023-05-07T09:53:25;25.30;43.00
20568;DHT22;10442;49.932;11.592;2023-05-07T09:55:57;25.20;43.90
20568;DHT22;10442;49.932;11.592;2023-05-07T09:58:26;25.10;44.30
20568;DHT22;10442;49.932;11.592;2023-05-07T10:00:55;25.00;44.20
20568;DHT22;10442;49.932;11.592;2023-05-07T10:03:24;24.90;44.10
20568;DHT22;10442;49.932;11.592;2023-05-07T10:06:00;24.80;43.80
20568;DHT22;10442;49.932;11.592;2023-05-07T10:08:30;24.80;44.50
20568;DHT22;10442;49.932;11.592;2023-05-07T10:11:00;24.70;44.70
20568;DHT22;10442;49.932;11.592;2023-05-07T10:13:30;24.60;44.60
20568;DHT22;10442;49.932;11.592;2023-05-07T10:15:59;24.60;44.60
20568;DHT22;10442;49.932;11.592;2023-05-07T10:18:33;24.50;44.70
20568;DHT22;10442;49.932;11.592;2023-05-07T10:21:11;24.50;45.70
20568;DHT22;10442;49.932;11.592;2023-05-07T10:23:45;24.40;45.40
20568;DHT22;10442;49.932;11.592;2023-05-07T10:26:14;24.30;45.30
20568;DHT22;10442;49.932;11.592;2023-05-07T10:28:45;24.30;45.20
20568;DHT22;10442;49.932;11.592;2023-05-07T10:34:12;24.30;45.20
20568;DHT22;10442;49.932;11.592;2023-05-07T10:36:40;24.30;45.30
20568;DHT22;10442;49.932;11.592;2023-05-07T10:39:10;24.30;45.00
20568;DHT22;10442;49.932;11.592;2023-05-07T10:41:39;24.30;44.80
20568;DHT22;10442;49.932;11.592;2023-05-07T10:44:07;24.40;44.80
20568;DHT22;10442;49.932;11.592;2023-05-07T10:46:36;24.50;45.20
20568;DHT22;10442;49.932;11.592;2023-05-07T10:49:09;24.60;44.90
20568;DHT22;10442;49.932;11.592;2023-05-07T10:51:44;24.60;44.20
20568;DHT22;10442;49.932;11.592;2023-05-07T10:54:23;24.70;44.60
20568;DHT22;10442;49.932;11.592;2023-05-07T10:57:36;24.80;44.30
20568;DHT22;10442;49.932;11.592;2023-05-07T11:03:07;24.80;43.60
20568;DHT22;10442;49.932;11.592;2023-05-07T11:05:47;24.80;43.30
20568;DHT22;10442;49.932;11.592;2023-05-07T11:08:58;24.80;43.00
20568;DHT22;10442;49.932;11.592;2023-05-07T11:11:50;24.80;43.00
20568;DHT22;10442;49.932;11.592;2023-05-07T11:17:17;24.70;41.90
20568;DHT22;10442;49.932;11.592;2023-05-07T11:19:53;24.70;41.70
20568;DHT22;10442;49.932;11.592;2023-05-07T11:22:47;24.70;41.40
20568;DHT22;10442;49.932;11.592;2023-05-07T11:25:22;24.70;41.50
20568;DHT22;10442;49.932;11.592;2023-05-07T11:28:05;24.80;41.60
20568;DHT22;10442;49.932;11.592;2023-05-07T11:30:34;24.90;41.80
20568;DHT22;10442;49.932;11.592;2023-05-07T11:33:04;25.00;42.10
20568;DHT22;10442;49.932;11.592;2023-05-07T11:35:34;25.20;42.20
20568;DHT22;10442;49.932;11.592;2023-05-07T11:38:05;25.30;41.90
20568;DHT22;10442;49.932;11.592;2023-05-07T11:40:34;25.40;41.30
20568;DHT22;10442;49.932;11.592;2023-05-07T11:43:10;25.40;41.20
20568;DHT22;10442;49.932;11.592;2023-05-07T11:45:38;25.50;41.20
20568;DHT22;10442;49.932;11.592;2023-05-07T11:48:05;25.50;40.80
20568;DHT22;10442;49.932;11.592;2023-05-07T11:50:33;25.50;40.10
20568;DHT22;10442;49.932;11.592;2023-05-07T11:53:00;25.50;40.40
20568;DHT22;10442;49.932;11.592;2023-05-07T11:55:27;25.60;40.30
20568;DHT22;10442;49.932;11.592;2023-05-07T11:57:54;25.50;40.10
20568;DHT22;10442;49.932;11.592;2023-05-07T12:00:22;25.50;40.40
20568;DHT22;10442;49.932;11.592;2023-05-07T12:02:50;25.50;40.30
20568;DHT22;10442;49.932;11.592;2023-05-07T12:05:17;25.40;39.90
20568;DHT22;10442;49.932;11.592;2023-05-07T12:07:45;25.50;40.60
20568;DHT22;10442;49.932;11.592;2023-05-07T12:10:13;25.40;40.90
20568;DHT22;10442;49.932;11.592;2023-05-07T12:12:41;25.30;40.20
20568;DHT22;10442;49.932;11.592;2023-05-07T12:15:18;25.30;40.20
20568;DHT22;10442;49.932;11.592;2023-05-07T12:17:49;25.30;40.50
20568;DHT22;10442;49.932;11.592;2023-05-07T12:20:18;25.20;40.50
20568;DHT22;10442;49.932;11.592;2023-05-07T12:22:46;25.20;40.10
20568;DHT22;10442;49.932;11.592;2023-05-07T12:25:19;25.20;41.00
20568;DHT22;10442;49.932;11.592;2023-05-07T12:27:52;25.10;40.80
20568;DHT22;10442;49.932;11.592;2023-05-07T12:30:19;25.10;40.60
20568;DHT22;10442;49.932;11.592;2023-05-07T12:32:47;25.10;40.20
20568;DHT22;10442;49.932;11.592;2023-05-07T12:35:14;25.10;40.00
20568;DHT22;10442;49.932;11.592;2023-05-07T12:37:42;25.10;40.00
20568;DHT22;10442;49.932;11.592;2023-05-07T12:40:10;25.10;39.60
20568;DHT22;10442;49.932;11.592;2023-05-07T12:42:40;25.10;38.90
20568;DHT22;10442;49.932;11.592;2023-05-07T12:45:12;25.00;39.10
20568;DHT22;10442;49.932;11.592;2023-05-07T12:47:47;25.00;38.80
20568;DHT22;10442;49.932;11.592;2023-05-07T12:50:15;25.00;39.20
20568;DHT22;10442;49.932;11.592;2023-05-07T12:52:47;25.10;40.40
20568;DHT22;10442;49.932;11.592;2023-05-07T12:55:16;25.10;38.90
20568;DHT22;10442;49.932;11.592;2023-05-07T12:57:48;25.20;39.20
20568;DHT22;10442;49.932;11.592;2023-05-07T13:00:17;25.20;39.10
20568;DHT22;10442;49.932;11.592;2023-05-07T13:02:45;25.30;39.90
20568;DHT22;10442;49.932;11.592;2023-05-07T13:05:13;25.30;40.00
20568;DHT22;10442;49.932;11.592;2023-05-07T13:07:40;25.40;40.40
20568;DHT22;10442;49.932;11.592;2023-05-07T13:10:19;25.50;39.80
20568;DHT22;10442;49.932;11.592;2023-05-07T13:12:46;25.70;39.90
20568;DHT22;10442;49.932;11.592;2023-05-07T13:15:14;25.80;39.70
20568;DHT22;10442;49.932;11.592;2023-05-07T13:17:42;25.90;39.40
20568;DHT22;10442;49.932;11.592;2023-05-07T13:20:10;26.00;39.10
20568;DHT22;10442;49.932;11.592;2023-05-07T13:22:39;26.00;38.70
20568;DHT22;10442;49.932;11.592;2023-05-07T13:25:07;26.00;38.70
20568;DHT22;10442;49.932;11.592;2023-05-07T13:27:35;26.00;38.90
20568;DHT22;10442;49.932;11.592;2023-05-07T13:30:04;25.90;38.70
20568;DHT22;10442;49.932;11.592;2023-05-07T13:32:33;25.90;38.90
20568;DHT22;10442;49.932;11.592;2023-05-07T13:35:00;25.90;38.50
20568;DHT22;10442;49.932;11.592;2023-05-07T13:37:28;25.90;38.60
20568;DHT22;10442;49.932;11.592;2023-05-07T13:39:55;25.90;38.50
20568;DHT22;10442;49.932;11.592;2023-05-07T13:42:22;25.90;38.60
20568;DHT22;10442;49.932;11.592;2023-05-07T13:44:50;25.90;38.90
20568;DHT22;10442;49.932;11.592;2023-05-07T13:47:17;25.90;38.60
20568;DHT22;10442;49.932;11.592;2023-05-07T13:49:45;25.90;38.70
20568;DHT22;10442;49.932;11.592;2023-05-07T13:52:12;25.90;38.70
20568;DHT22;10442;49.932;11.592;2023-05-07T13:54:40;25.90;38.70
20568;DHT22;10442;49.932;11.592;2023-05-07T13:57:07;25.90;38.60
20568;DHT22;10442;49.932;11.592;2023-05-07T13:59:34;25.90;38.60
20568;DHT22;10442;49.932;11.592;2023-05-07T14:02:02;25.90;38.70
20568;DHT22;10442;49.932;11.592;2023-05-07T14:04:30;25.90;38.80
20568;DHT22;10442;49.932;11.592;2023-05-07T14:06:58;26.00;39.20
20568;DHT22;10442;49.932;11.592;2023-05-07T14:09:25;26.10;38.90
20568;DHT22;10442;49.932;11.592;2023-05-07T14:11:52;26.10;39.30
20568;DHT22;10442;49.932;11.592;2023-05-07T14:14:20;26.20;38.90
20568;DHT22;10442;49.932;11.592;2023-05-07T14:16:47;26.20;38.70
20568;DHT22;10442;49.932;11.592;2023-05-07T14:19:17;26.30;38.80
20568;DHT22;10442;49.932;11.592;2023-05-07T14:21:44;26.20;38.90
20568;DHT22;10442;49.932;11.592;2023-05-07T14:24:11;26.20;39.30
20568;DHT22;10442;49.932;11.592;2023-05-07T14:26:38;26.10;39.50
20568;DHT22;10442;49.932;11.592;2023-05-07T14:29:06;26.10;39.40
20568;DHT22;10442;49.932;11.592;2023-05-07T14:31:33;26.00;39.10
20568;DHT22;10442;49.932;11.592;2023-05-07T14:34:00;25.90;39.30
20568;DHT22;10442;49.932;11.592;2023-05-07T14:36:28;25.80;39.60
20568;DHT22;10442;49.932;11.592;2023-05-07T14:38:57;25.70;39.20
20568;DHT22;10442;49.932;11.592;2023-05-07T14:41:26;25.60;39.50
20568;DHT22;10442;49.932;11.592;2023-05-07T14:43:54;25.50;40.10
20568;DHT22;10442;49.932;11.592;2023-05-07T14:46:21;25.40;40.40
20568;DHT22;10442;49.932;11.592;2023-05-07T14:48:49;25.30;40.80
20568;DHT22;10442;49.932;11.592;2023-05-07T14:51:16;25.30;41.10
20568;DHT22;10442;49.932;11.592;2023-05-07T14:53:44;25.20;41.10
20568;DHT22;10442;49.932;11.592;2023-05-07T14:56:11;25.10;41.30
20568;DHT22;10442;49.932;11.592;2023-05-07T14:58:39;25.10;41.20
20568;DHT22;10442;49.932;11.592;2023-05-07T15:01:07;25.00;40.90
20568;DHT22;10442;49.932;11.592;2023-05-07T15:03:34;25.00;40.90
20568;DHT22;10442;49.932;11.592;2023-05-07T15:06:02;24.90;41.10
20568;DHT22;10442;49.932;11.592;2023-05-07T15:08:30;24.90;41.30
20568;DHT22;10442;49.932;11.592;2023-05-07T15:10:57;24.80;41.30
20568;DHT22;10442;49.932;11.592;2023-05-07T15:13:25;24.80;41.50
20568;DHT22;10442;49.932;11.592;2023-05-07T15:15:52;24.70;41.70
20568;DHT22;10442;49.932;11.592;2023-05-07T15:18:20;24.60;41.70
20568;DHT22;10442;49.932;11.592;2023-05-07T15:20:49;24.60;41.90
20568;DHT22;10442;49.932;11.592;2023-05-07T15:23:16;24.50;42.00
20568;DHT22;10442;49.932;11.592;2023-05-07T15:25:47;24.50;42.20
20568;DHT22;10442;49.932;11.592;2023-05-07T15:28:19;24.50;42.20
20568;DHT22;10442;49.932;11.592;2023-05-07T15:30:46;24.50;42.60
20568;DHT22;10442;49.932;11.592;2023-05-07T15:33:14;24.50;42.70
20568;DHT22;10442;49.932;11.592;2023-05-07T15:35:41;24.50;43.00
20568;DHT22;10442;49.932;11.592;2023-05-07T15:38:09;24.50;42.80